Time;durP1;ratioP1;P1;durP2;ratioP2;P2;SDS_P1;SDS_P2;PMS_P1;PMS_P2;Temp;Humidity;BMP_temperature;BMP_pressure;BME280_temperature;BME280_humidity;BME280_pressure;Samples;Min_cycle;Max_cycle;Signal;HPM_P1;HPM_P2
2023/04/02 00:00:12;;;;;;;0.77;0.20;;;8.20;93.00;;;;;;5058446;28;20142;-80
2023/04/02 00:02:50;;;;;;;0.35;0.20;;;8.10;93.00;;;;;;5054784;28;20024;-79
2023/04/02 00:05:18;;;;;;;0.35;0.30;;;8.10;93.10;;;;;;5056975;28;20033;-79
2023/04/02 00:07:48;;;;;;;0.38;0.30;;;8.00;93.20;;;;;;5061168;28;20032;-80
2023/04/02 00:10:32;;;;;;;1.35;0.40;;;8.00;93.30;;;;;;5064814;28;20085;-81
2023/04/02 00:13:10;;;;;;;2.58;0.20;;;7.90;93.40;;;;;;5072795;28;20012;-78
2023/04/02 00:15:42;;;;;;;0.63;0.30;;;7.90;93.50;;;;;;5084017;28;20025;-79
2023/04/02 00:18:16;;;;;;;0.20;0.20;;;7.90;93.60;;;;;;5075801;28;20434;-77
2023/04/02 00:20:46;;;;;;;0.98;0.40;;;7.90;93.70;;;;;;5060315;28;20078;-79
2023/04/02 00:23:14;;;;;;;0.55;0.20;;;7.90;93.70;;;;;;5083567;28;20025;-77
2023/04/02 00:25:43;;;;;;;1.45;0.30;;;7.90;93.70;;;;;;5090082;28;20064;-79
2023/04/02 00:28:19;;;;;;;0.10;0.10;;;7.90;93.80;;;;;;5077997;28;20016;-78
2023/04/02 00:30:54;;;;;;;0.63;0.43;;;7.80;93.80;;;;;;5077598;28;20105;-78
2023/04/02 00:33:23;;;;;;;0.15;0.15;;;7.80;93.90;;;;;;5077525;28;20036;-77
2023/04/02 00:35:51;;;;;;;0.20;0.20;;;7.70;94.00;;;;;;5057655;28;20021;-80
2023/04/02 00:38:21;;;;;;;0.40;0.10;;;7.60;94.10;;;;;;5074327;28;20024;-78
2023/04/02 00:40:48;;;;;;;0.03;0.03;;;7.60;94.20;;;;;;5073570;28;20114;-79
2023/04/02 00:43:15;;;;;;;0.38;0.25;;;7.60;94.30;;;;;;5076264;28;20096;-80
2023/04/02 00:45:49;;;;;;;0.30;0.30;;;7.60;94.40;;;;;;5042897;28;20032;-79
2023/04/02 00:48:30;;;;;;;0.55;0.28;;;7.60;94.40;;;;;;5056857;28;20092;-78
2023/04/02 00:51:07;;;;;;;0.43;0.20;;;7.60;94.40;;;;;;5057080;28;20434;-76
2023/04/02 00:53:34;;;;;;;1.67;0.90;;;7.50;94.50;;;;;;5055386;28;20080;-79
2023/04/02 00:56:00;;;;;;;0.77;0.30;;;7.50;94.60;;;;;;5054513;28;20090;-78
2023/04/02 00:58:34;;;;;;;0.40;0.30;;;7.60;94.60;;;;;;5055007;28;20512;-79
2023/04/02 01:01:00;;;;;;;0.32;0.10;;;7.60;94.60;;;;;;5055505;28;20036;-80
2023/04/02 01:03:34;;;;;;;0.30;0.20;;;7.60;94.60;;;;;;5054662;28;20084;-79
2023/04/02 01:06:11;;;;;;;0.52;0.17;;;7.70;94.50;;;;;;5054595;28;20025;-83
2023/04/02 01:08:50;;;;;;;0.52;0.32;;;7.70;94.40;;;;;;5055614;28;20013;-78
2023/04/02 01:11:42;;;;;;;0.17;0.17;;;7.70;94.30;;;;;;5052686;28;20104;-78
2023/04/02 01:14:41;;;;;;;0.20;0.20;;;7.70;94.40;;;;;;5064870;28;20040;-77
2023/04/02 01:17:41;;;;;;;0.50;0.20;;;7.80;94.40;;;;;;5054271;28;20025;-78
2023/04/02 01:20:40;;;;;;;0.82;0.20;;;7.80;94.20;;;;;;5052902;28;20524;-79
2023/04/02 01:23:24;;;;;;;0.10;0.10;;;7.80;94.20;;;;;;5052809;28;20060;-78
2023/04/02 01:26:34;;;;;;;0.70;0.30;;;7.80;94.20;;;;;;5053355;28;20086;-79
2023/04/02 01:29:03;;;;;;;1.05;0.20;;;7.90;94.10;;;;;;5053883;28;20151;-79
2023/04/02 01:31:31;;;;;;;0.20;0.20;;;7.90;94.10;;;;;;5054361;28;20434;-78
2023/04/02 01:33:58;;;;;;;0.40;0.20;;;7.90;94.10;;;;;;5054548;28;20033;-80
2023/04/02 01:36:33;;;;;;;1.08;0.10;;;7.90;94.10;;;;;;5057319;28;20117;-80
2023/04/02 01:39:30;;;;;;;0.55;0.20;;;7.90;94.10;;;;;;5038614;28;20394;-80
2023/04/02 01:42:15;;;;;;;0.88;0.20;;;7.90;94.10;;;;;;5054770;28;20039;-79
2023/04/02 01:44:49;;;;;;;1.15;0.30;;;7.90;94.10;;;;;;5071712;28;20473;-79
2023/04/02 01:47:18;;;;;;;2.00;0.20;;;7.90;94.10;;;;;;5040216;28;20393;-79
2023/04/02 01:49:44;;;;;;;1.00;0.30;;;7.90;94.10;;;;;;5059058;28;20040;-79
2023/04/02 01:52:35;;;;;;;0.45;0.35;;;7.90;94.10;;;;;;5043313;28;20107;-79
2023/04/02 01:55:02;;;;;;;3.50;0.40;;;7.90;94.10;;;;;;5077432;28;20050;-77
2023/04/02 01:57:28;;;;;;;0.30;0.10;;;7.90;94.10;;;;;;5076774;28;20039;-77
2023/04/02 01:59:54;;;;;;;0.30;0.20;;;7.90;94.10;;;;;;5077938;28;20020;-77
2023/04/02 02:02:20;;;;;;;0.20;0.08;;;7.90;94.10;;;;;;5078245;28;20024;-79
2023/04/02 02:04:47;;;;;;;0.45;0.35;;;7.90;94.10;;;;;;5063308;28;20040;-78
2023/04/02 02:07:15;;;;;;;1.52;0.30;;;7.90;94.10;;;;;;5082342;28;20103;-77
2023/04/02 02:09:42;;;;;;;0.20;0.10;;;7.90;94.10;;;;;;5080282;28;20044;-76
2023/04/02 02:12:12;;;;;;;1.38;0.20;;;7.90;94.20;;;;;;5062396;28;20028;-77
2023/04/02 02:14:39;;;;;;;0.45;0.10;;;7.90;94.20;;;;;;5072651;28;20028;-78
2023/04/02 02:17:12;;;;;;;0.30;0.10;;;7.90;94.20;;;;;;5083977;28;20032;-78
2023/04/02 02:19:48;;;;;;;0.93;0.30;;;8.00;94.20;;;;;;5091432;28;20025;-77
2023/04/02 02:22:30;;;;;;;1.02;0.30;;;7.90;94.10;;;;;;5084450;28;20059;-78
2023/04/02 02:24:59;;;;;;;0.03;0.03;;;8.00;94.20;;;;;;5082363;28;20016;-77
2023/04/02 02:27:25;;;;;;;0.20;0.10;;;7.90;94.10;;;;;;5082736;28;20058;-79
2023/04/02 02:30:06;;;;;;;0.17;0.08;;;8.00;94.20;;;;;;5083002;28;20084;-77
2023/04/02 02:32:35;;;;;;;0.77;0.08;;;8.00;94.20;;;;;;5081666;28;20028;-77
2023/04/02 02:35:11;;;;;;;0.00;0.00;;;7.90;94.20;;;;;;5082090;28;20095;-77
2023/04/02 02:37:42;;;;;;;0.10;0.10;;;8.00;94.20;;;;;;5090219;28;20094;-76
2023/04/02 02:40:20;;;;;;;0.25;0.20;;;8.00;94.20;;;;;;5094881;28;20024;-76
2023/04/02 02:42:51;;;;;;;0.10;0.10;;;8.00;94.30;;;;;;5076172;28;20028;-77
2023/04/02 02:45:25;;;;;;;0.88;0.30;;;8.00;94.20;;;;;;5080456;28;20029;-74
2023/04/02 02:47:53;;;;;;;0.82;0.40;;;7.90;94.10;;;;;;5058884;28;20051;-78
2023/04/02 02:50:25;;;;;;;0.32;0.32;;;7.90;94.10;;;;;;5057956;28;20029;-77
2023/04/02 02:52:56;;;;;;;0.70;0.20;;;7.90;94.10;;;;;;5061669;28;20039;-80
2023/04/02 02:55:28;;;;;;;1.23;0.30;;;7.90;94.10;;;;;;5064775;28;20156;-76
2023/04/02 02:58:05;;;;;;;0.10;0.00;;;7.90;94.20;;;;;;5073864;28;20013;-77
2023/04/02 03:00:32;;;;;;;0.65;0.20;;;7.90;94.20;;;;;;5074129;28;20135;-79
2023/04/02 03:02:59;;;;;;;1.25;0.30;;;7.90;94.40;;;;;;5063027;28;20021;-78
2023/04/02 03:05:27;;;;;;;0.52;0.20;;;7.90;94.20;;;;;;5046775;28;20491;-77
2023/04/02 03:07:56;;;;;;;0.35;0.20;;;7.90;94.20;;;;;;5045156;28;20423;-79
2023/04/02 03:10:47;;;;;;;0.85;0.10;;;7.80;94.20;;;;;;5059591;28;20304;-79
2023/04/02 03:13:18;;;;;;;0.65;0.38;;;7.80;94.20;;;;;;5065318;28;20021;-78
2023/04/02 03:16:07;;;;;;;0.10;0.10;;;7.80;94.10;;;;;;5058863;28;20470;-77
2023/04/02 03:19:01;;;;;;;0.85;0.10;;;7.80;94.10;;;;;;5081608;28;20100;-79
2023/04/02 03:21:38;;;;;;;0.03;0.03;;;7.90;94.10;;;;;;5079712;28;20028;-79
2023/04/02 03:24:21;;;;;;;0.47;0.20;;;7.80;94.10;;;;;;5078995;28;20051;-77
2023/04/02 03:27:00;;;;;;;1.33;0.20;;;7.80;94.10;;;;;;5080066;28;20029;-78
2023/04/02 03:29:30;;;;;;;1.17;0.20;;;7.80;94.00;;;;;;5081129;28;20032;-77
2023/04/02 03:31:58;;;;;;;0.10;0.10;;;7.80;94.10;;;;;;5077544;28;20114;-79
2023/04/02 03:34:38;;;;;;;0.55;0.08;;;7.80;94.10;;;;;;5059597;28;20032;-78
2023/04/02 03:37:29;;;;;;;0.00;0.00;;;7.80;94.20;;;;;;5061884;28;20070;-79
2023/04/02 03:40:08;;;;;;;0.13;0.10;;;7.80;94.20;;;;;;5055805;28;20044;-76
2023/04/02 03:42:46;;;;;;;0.22;0.10;;;7.70;94.20;;;;;;5065521;28;20025;-79
2023/04/02 03:45:21;;;;;;;0.20;0.20;;;7.70;94.30;;;;;;5053544;28;20077;-79
2023/04/02 03:47:51;;;;;;;0.57;0.35;;;7.70;94.30;;;;;;5063122;28;20025;-77
2023/04/02 03:50:38;;;;;;;0.55;0.20;;;7.70;94.30;;;;;;5056302;28;20048;-78
2023/04/02 03:53:04;;;;;;;0.93;0.20;;;7.70;94.30;;;;;;5083141;28;20028;-80
2023/04/02 03:55:35;;;;;;;1.25;0.20;;;7.70;94.30;;;;;;5080205;28;20032;-77
2023/04/02 03:58:06;;;;;;;0.38;0.30;;;7.70;94.20;;;;;;5079268;28;20044;-78
2023/04/02 04:00:59;;;;;;;0.15;0.10;;;7.70;94.30;;;;;;5081484;28;20027;-78
2023/04/02 04:03:43;;;;;;;0.20;0.20;;;7.70;94.30;;;;;;5085582;28;20084;-78
2023/04/02 04:06:31;;;;;;;0.82;0.25;;;7.70;94.30;;;;;;5057783;28;20025;-78
2023/04/02 04:09:19;;;;;;;0.22;0.22;;;7.70;94.30;;;;;;5075888;28;20025;-79
2023/04/02 04:11:49;;;;;;;0.47;0.40;;;7.70;94.30;;;;;;5083903;28;20023;-79
2023/04/02 04:14:19;;;;;;;0.10;0.10;;;7.70;94.30;;;;;;5079921;28;20021;-79
2023/04/02 04:16:55;;;;;;;0.80;0.20;;;7.70;94.30;;;;;;5064159;28;20089;-81
2023/04/02 04:19:31;;;;;;;0.32;0.20;;;7.70;94.30;;;;;;5088090;28;20030;-78
2023/04/02 04:22:30;;;;;;;0.47;0.10;;;7.70;94.30;;;;;;5083138;28;20016;-79
2023/04/02 04:25:16;;;;;;;0.95;0.20;;;7.70;94.20;;;;;;5036097;28;20036;-78
2023/04/02 04:27:54;;;;;;;0.30;0.20;;;7.70;94.20;;;;;;5082345;28;20048;-79
2023/04/02 04:30:35;;;;;;;0.70;0.22;;;7.70;94.20;;;;;;5083267;28;20028;-79
2023/04/02 04:33:10;;;;;;;0.25;0.10;;;7.70;94.10;;;;;;5067097;28;20028;-79
2023/04/02 04:35:42;;;;;;;0.13;0.13;;;7.70;94.20;;;;;;5083090;28;20109;-78
2023/04/02 04:38:32;;;;;;;0.63;0.20;;;7.70;94.30;;;;;;5061849;28;20024;-79
2023/04/02 04:41:09;;;;;;;0.55;0.20;;;7.60;94.30;;;;;;5055742;28;20029;-76
2023/04/02 04:43:47;;;;;;;0.95;0.20;;;7.60;94.30;;;;;;5054409;28;20163;-77
2023/04/02 04:46:31;;;;;;;0.40;0.20;;;7.60;94.40;;;;;;5065451;28;20151;-76
2023/04/02 04:49:17;;;;;;;0.00;0.00;;;7.60;94.40;;;;;;5072975;28;20067;-76
2023/04/02 04:51:55;;;;;;;0.45;0.17;;;7.60;94.40;;;;;;5066153;28;20032;-76
2023/04/02 04:54:25;;;;;;;1.00;0.35;;;7.50;94.50;;;;;;5089248;28;20040;-76
2023/04/02 04:56:59;;;;;;;0.95;0.40;;;7.60;94.50;;;;;;5091292;28;20098;-76
2023/04/02 04:59:42;;;;;;;0.40;0.40;;;7.50;94.50;;;;;;5093880;28;20029;-75
2023/04/02 05:02:22;;;;;;;0.65;0.30;;;7.50;94.60;;;;;;5083950;28;20024;-76
2023/04/02 05:04:50;;;;;;;1.77;0.30;;;7.50;94.70;;;;;;5079058;28;20029;-76
2023/04/02 05:07:29;;;;;;;0.45;0.45;;;7.60;94.70;;;;;;5087513;28;20033;-76
2023/04/02 05:10:12;;;;;;;1.13;0.45;;;7.50;94.60;;;;;;5091803;28;20061;-76
2023/04/02 05:12:43;;;;;;;1.23;0.47;;;7.60;94.70;;;;;;5075739;28;20024;-77
2023/04/02 05:15:27;;;;;;;0.77;0.38;;;7.60;94.70;;;;;;5039911;28;20504;-76
2023/04/02 05:18:21;;;;;;;0.77;0.52;;;7.60;94.70;;;;;;5074100;28;20020;-76
2023/04/02 05:21:16;;;;;;;0.20;0.20;;;7.60;94.70;;;;;;5074207;28;20028;-78
2023/04/02 05:24:07;;;;;;;0.60;0.35;;;7.60;94.70;;;;;;5055346;28;20047;-77
2023/04/02 05:26:41;;;;;;;2.42;0.13;;;7.60;94.60;;;;;;5050479;28;20057;-76
2023/04/02 05:29:19;;;;;;;1.73;0.20;;;7.60;94.60;;;;;;5066843;28;20017;-76
2023/04/02 05:31:57;;;;;;;1.58;0.40;;;7.60;94.60;;;;;;5066392;28;20024;-76
2023/04/02 05:34:26;;;;;;;1.45;0.30;;;7.60;94.50;;;;;;5086280;28;20028;-76
2023/04/02 05:36:53;;;;;;;1.08;0.20;;;7.60;94.50;;;;;;5066761;28;20491;-75
2023/04/02 05:39:23;;;;;;;0.63;0.20;;;7.60;94.50;;;;;;5067644;28;20021;-76
2023/04/02 05:42:07;;;;;;;0.98;0.40;;;7.60;94.50;;;;;;5087116;28;20024;-76
2023/04/02 05:44:54;;;;;;;0.40;0.30;;;7.70;94.50;;;;;;5081680;28;20039;-76
2023/04/02 05:47:24;;;;;;;0.10;0.10;;;7.70;94.50;;;;;;5092433;28;20058;-76
2023/04/02 05:50:13;;;;;;;1.83;0.32;;;7.70;94.50;;;;;;5094671;28;20111;-76
2023/04/02 05:52:44;;;;;;;0.52;0.22;;;7.70;94.50;;;;;;5057409;28;20127;-75
2023/04/02 05:55:15;;;;;;;0.73;0.20;;;7.70;94.50;;;;;;5098212;28;20094;-76
2023/04/02 05:57:48;;;;;;;1.40;0.37;;;7.70;94.50;;;;;;5099286;28;20012;-76
2023/04/02 06:00:19;;;;;;;;;;;7.80;94.50;;;;;;5099098;28;20596;-77
2023/04/02 06:02:53;;;;;;;0.30;0.20;;;7.80;94.50;;;;;;5098325;28;19908;-75
2023/04/02 06:05:27;;;;;;;0.32;0.28;;;7.80;94.40;;;;;;5089499;28;20070;-76
2023/04/02 06:08:10;;;;;;;0.60;0.20;;;7.90;94.50;;;;;;5068575;28;20073;-77
2023/04/02 06:11:00;;;;;;;1.17;0.20;;;7.90;94.30;;;;;;5056372;28;20059;-77
2023/04/02 06:13:27;;;;;;;1.25;0.20;;;7.90;94.10;;;;;;5070471;28;20035;-78
2023/04/02 06:15:52;;;;;;;0.30;0.30;;;7.90;94.00;;;;;;5056619;28;20029;-77
2023/04/02 06:18:29;;;;;;;0.45;0.20;;;7.90;94.10;;;;;;5055507;28;20070;-77
2023/04/02 06:20:55;;;;;;;0.15;0.15;;;7.90;94.10;;;;;;5055934;28;20021;-76
2023/04/02 06:23:29;;;;;;;0.63;0.20;;;7.90;94.10;;;;;;5038267;28;20017;-78
2023/04/02 06:26:11;;;;;;;1.70;0.25;;;8.00;94.10;;;;;;5073833;28;20733;-79
2023/04/02 06:28:45;;;;;;;0.68;0.40;;;8.00;93.90;;;;;;5058203;28;20488;-77
2023/04/02 06:31:24;;;;;;;0.38;0.30;;;8.00;93.80;;;;;;5076664;28;20408;-78
2023/04/02 06:33:53;;;;;;;0.98;0.68;;;8.00;93.80;;;;;;5074785;28;20029;-77
2023/04/02 06:36:20;;;;;;;0.98;0.30;;;8.10;93.90;;;;;;5073340;28;20040;-79
2023/04/02 06:38:47;;;;;;;0.88;0.30;;;8.10;93.80;;;;;;5056780;28;20413;-77
2023/04/02 06:41:21;;;;;;;0.40;0.22;;;8.10;93.80;;;;;;5054636;28;20021;-76
2023/04/02 06:43:58;;;;;;;0.20;0.20;;;8.20;93.70;;;;;;5067247;28;20058;-80
2023/04/02 06:46:50;;;;;;;0.63;0.20;;;8.30;93.60;;;;;;5056571;28;20425;-79
2023/04/02 06:49:24;;;;;;;0.83;0.33;;;8.30;93.40;;;;;;5068509;28;20047;-78
2023/04/02 06:51:53;;;;;;;0.22;0.20;;;8.40;93.50;;;;;;5065879;28;20620;-76
2023/04/02 06:54:19;;;;;;;0.50;0.32;;;8.40;93.20;;;;;;5077315;28;20131;-76
2023/04/02 06:56:48;;;;;;;0.20;0.20;;;8.50;93.20;;;;;;5062535;28;20113;-78
2023/04/02 06:59:18;;;;;;;0.28;0.28;;;8.60;93.10;;;;;;5038275;28;20036;-78
2023/04/02 07:01:57;;;;;;;0.82;0.22;;;8.70;92.90;;;;;;5046339;28;20389;-78
2023/04/02 07:04:24;;;;;;;0.80;0.28;;;8.80;92.80;;;;;;5054860;28;20036;-76
2023/04/02 07:06:52;;;;;;;1.08;0.30;;;8.80;92.60;;;;;;5059174;28;20079;-79
2023/04/02 07:09:20;;;;;;;0.93;0.50;;;8.90;92.40;;;;;;5067410;28;20021;-78
2023/04/02 07:11:45;;;;;;;3.08;0.38;;;8.90;92.30;;;;;;5055427;28;20067;-78
2023/04/02 07:14:12;;;;;;;1.42;0.30;;;9.00;92.30;;;;;;5065677;28;20369;-77
2023/04/02 07:16:39;;;;;;;0.68;0.30;;;9.10;92.00;;;;;;5057462;28;20056;-78
2023/04/02 07:19:05;;;;;;;3.03;0.40;;;9.20;91.90;;;;;;5059877;28;20036;-76
2023/04/02 07:21:31;;;;;;;1.23;0.40;;;9.30;91.90;;;;;;5073918;28;20100;-78
2023/04/02 07:23:57;;;;;;;0.63;0.47;;;9.40;91.40;;;;;;5069626;28;20104;-78
2023/04/02 07:26:26;;;;;;;0.52;0.40;;;9.40;91.40;;;;;;5054518;28;20025;-78
2023/04/02 07:28:53;;;;;;;0.52;0.35;;;9.60;91.00;;;;;;5070029;28;20096;-76
2023/04/02 07:31:23;;;;;;;1.15;0.25;;;9.70;90.90;;;;;;5077320;28;20055;-77
2023/04/02 07:33:49;;;;;;;1.25;0.30;;;9.70;91.00;;;;;;5056284;28;20025;-77
2023/04/02 07:36:22;;;;;;;0.52;0.52;;;9.90;90.80;;;;;;5046639;28;20059;-77
2023/04/02 07:38:48;;;;;;;1.08;0.50;;;10.00;90.50;;;;;;5067798;28;20024;-77
2023/04/02 07:41:15;;;;;;;0.43;0.40;;;10.10;90.10;;;;;;5052872;28;20111;-77
2023/04/02 07:43:41;;;;;;;0.80;0.35;;;10.20;90.00;;;;;;5046342;28;20032;-78
2023/04/02 07:46:08;;;;;;;0.50;0.30;;;10.20;89.60;;;;;;5069570;28;20106;-77
2023/04/02 07:48:34;;;;;;;0.40;0.30;;;10.30;89.20;;;;;;5080090;28;20158;-77
2023/04/02 07:51:24;;;;;;;1.25;0.52;;;10.40;89.10;;;;;;5123758;27;20401;-76
2023/04/02 07:53:54;;;;;;;0.98;0.50;;;10.50;88.50;;;;;;5137158;27;20090;-77
2023/04/02 07:56:21;;;;;;;1.83;0.40;;;10.50;88.10;;;;;;5121331;27;20023;-77
2023/04/02 07:58:47;;;;;;;2.72;0.80;;;10.50;88.10;;;;;;5130062;27;20053;-79
2023/04/02 08:01:25;;;;;;;0.82;0.50;;;10.50;88.20;;;;;;5131531;28;20035;-79
2023/04/02 08:03:52;;;;;;;2.92;0.40;;;10.50;88.10;;;;;;5097953;28;20031;-76
2023/04/02 08:06:18;;;;;;;0.70;0.40;;;10.50;87.50;;;;;;5091884;28;20020;-77
2023/04/02 08:08:44;;;;;;;0.40;0.40;;;10.60;87.20;;;;;;5122284;27;20019;-77
2023/04/02 08:11:10;;;;;;;0.80;0.40;;;10.60;87.80;;;;;;5104627;28;20138;-77
2023/04/02 08:13:36;;;;;;;1.80;0.60;;;10.70;87.80;;;;;;5106882;28;20027;-79
2023/04/02 08:16:02;;;;;;;1.65;0.52;;;10.80;87.40;;;;;;5124818;28;20024;-77
2023/04/02 08:18:29;;;;;;;1.00;0.30;;;10.90;87.50;;;;;;5131009;27;20034;-77
2023/04/02 08:20:55;;;;;;;1.80;0.88;;;11.10;87.30;;;;;;5131036;28;20467;-78
2023/04/02 08:23:21;;;;;;;1.67;0.65;;;11.20;86.30;;;;;;5112290;27;20480;-78
2023/04/02 08:25:47;;;;;;;0.35;0.35;;;11.30;85.80;;;;;;5107938;28;20027;-77
2023/04/02 08:28:13;;;;;;;0.93;0.50;;;11.30;84.80;;;;;;5110797;28;20032;-76
2023/04/02 08:30:39;;;;;;;2.30;0.50;;;11.30;84.80;;;;;;5109314;28;20523;-78
2023/04/02 08:33:05;;;;;;;1.65;0.65;;;11.30;85.00;;;;;;5109800;28;20153;-77
2023/04/02 08:35:31;;;;;;;2.13;0.88;;;11.30;84.00;;;;;;5109213;28;20043;-77
2023/04/02 08:37:57;;;;;;;0.88;0.52;;;11.20;84.60;;;;;;5120605;28;20028;-77
2023/04/02 08:40:30;;;;;;;1.67;0.93;;;11.30;84.80;;;;;;5103714;28;20059;-77
2023/04/02 08:43:14;;;;;;;4.82;1.30;;;11.40;84.30;;;;;;5105522;28;20102;-77
2023/04/02 08:45:52;;;;;;;1.08;0.60;;;11.40;83.60;;;;;;5120363;28;20024;-77
2023/04/02 08:48:18;;;;;;;0.63;0.40;;;11.40;83.60;;;;;;5128779;28;20087;-77
2023/04/02 08:50:44;;;;;;;1.10;0.50;;;11.30;83.50;;;;;;5128994;27;20091;-77
2023/04/02 08:53:17;;;;;;;0.30;0.22;;;11.30;83.90;;;;;;5128970;27;20028;-76
2023/04/02 08:56:16;;;;;;;0.90;0.38;;;11.30;84.60;;;;;;5122853;27;20531;-77
2023/04/02 08:58:53;;;;;;;1.02;0.30;;;11.40;84.20;;;;;;5107109;28;20059;-77
2023/04/02 09:01:47;;;;;;;0.45;0.40;;;11.60;83.40;;;;;;5102540;28;20040;-77
2023/04/02 09:04:17;;;;;;;0.93;0.30;;;11.70;83.30;;;;;;5094610;28;20035;-76
2023/04/02 09:06:44;;;;;;;0.82;0.43;;;11.90;81.70;;;;;;5095595;28;20028;-77
2023/04/02 09:09:12;;;;;;;0.70;0.40;;;12.00;81.40;;;;;;5095166;28;20024;-77
2023/04/02 09:11:41;;;;;;;1.75;0.55;;;12.00;81.40;;;;;;5093475;28;20605;-77
2023/04/02 09:14:20;;;;;;;0.65;0.40;;;12.20;80.60;;;;;;5100648;28;20032;-78
2023/04/02 09:16:45;;;;;;;0.98;0.50;;;12.30;80.50;;;;;;5112849;28;20522;-77
2023/04/02 09:19:35;;;;;;;0.45;0.20;;;12.40;80.30;;;;;;5115221;28;20028;-77
2023/04/02 09:22:07;;;;;;;1.60;0.60;;;12.60;79.20;;;;;;5114044;28;20035;-77
2023/04/02 09:24:37;;;;;;;1.10;0.47;;;12.90;79.90;;;;;;5115178;28;20485;-77
2023/04/02 09:27:03;;;;;;;2.97;0.75;;;13.10;77.30;;;;;;5115014;28;20047;-78
2023/04/02 09:29:43;;;;;;;1.42;0.40;;;13.00;76.70;;;;;;5106075;28;20024;-77
2023/04/02 09:32:26;;;;;;;0.57;0.40;;;12.80;76.40;;;;;;5087038;28;20032;-77
2023/04/02 09:35:11;;;;;;;1.25;0.40;;;12.70;77.40;;;;;;5095587;28;20027;-77
2023/04/02 09:37:37;;;;;;;0.95;0.43;;;12.60;77.60;;;;;;5103129;28;20097;-78
2023/04/02 09:40:25;;;;;;;0.50;0.30;;;12.40;77.90;;;;;;5100385;28;20495;-78
2023/04/02 09:43:15;;;;;;;1.02;0.40;;;12.30;79.30;;;;;;5115125;28;20012;-77
2023/04/02 09:45:42;;;;;;;0.95;0.35;;;12.50;78.90;;;;;;5127104;28;20092;-77
2023/04/02 09:48:20;;;;;;;1.40;0.40;;;12.80;77.80;;;;;;5117196;28;20131;-77
2023/04/02 09:50:46;;;;;;;1.58;0.40;;;13.20;76.80;;;;;;5103376;28;20070;-77
2023/04/02 09:53:41;;;;;;;1.55;1.02;;;13.60;75.20;;;;;;5075384;28;20362;-77
2023/04/02 09:56:16;;;;;;;1.27;0.30;;;14.00;74.80;;;;;;5024261;28;20053;-78
2023/04/02 09:58:44;;;;;;;0.52;0.32;;;14.20;73.30;;;;;;5074316;28;20024;-78
2023/04/02 10:01:28;;;;;;;1.40;0.40;;;14.10;71.60;;;;;;5076767;28;20082;-77
2023/04/02 10:03:54;;;;;;;0.90;0.60;;;13.90;72.00;;;;;;5083442;28;20021;-78
2023/04/02 10:06:20;;;;;;;2.05;0.60;;;13.70;71.80;;;;;;5074386;28;20096;-77
2023/04/02 10:08:46;;;;;;;0.88;0.47;;;13.20;73.10;;;;;;5074604;28;20136;-76
2023/04/02 10:11:18;;;;;;;0.68;0.40;;;12.90;75.30;;;;;;5074858;28;20025;-77
2023/04/02 10:13:56;;;;;;;0.70;0.45;;;12.70;76.10;;;;;;5090892;28;20095;-78
2023/04/02 10:16:48;;;;;;;1.10;0.40;;;12.60;76.90;;;;;;5109166;28;20111;-77
2023/04/02 10:19:35;;;;;;;0.95;0.55;;;12.60;77.50;;;;;;5104741;28;20458;-78
2023/04/02 10:22:18;;;;;;;2.33;0.52;;;12.70;77.40;;;;;;5095502;28;20149;-78
2023/04/02 10:24:45;;;;;;;1.15;0.52;;;12.70;76.90;;;;;;5094721;28;20024;-77
2023/04/02 10:27:29;;;;;;;0.30;0.25;;;12.70;76.90;;;;;;5094281;28;20369;-78
2023/04/02 10:30:12;;;;;;;1.13;0.65;;;12.70;76.70;;;;;;5094202;28;20027;-78
2023/04/02 10:32:38;;;;;;;2.60;0.47;;;12.80;76.90;;;;;;5093013;28;20448;-77
2023/04/02 10:35:20;;;;;;;1.40;0.40;;;13.00;76.60;;;;;;5093186;28;20047;-78
2023/04/02 10:37:45;;;;;;;0.68;0.50;;;13.20;76.50;;;;;;5074443;28;20078;-77
2023/04/02 10:40:23;;;;;;;0.82;0.35;;;13.50;76.10;;;;;;5073890;28;20024;-77
2023/04/02 10:43:27;;;;;;;0.93;0.40;;;13.80;73.70;;;;;;5076078;28;20115;-78
2023/04/02 10:46:04;;;;;;;0.68;0.40;;;13.90;72.80;;;;;;5105988;28;20098;-76
2023/04/02 10:49:07;;;;;;;1.75;0.20;;;13.90;72.20;;;;;;5107038;28;20044;-76
2023/04/02 10:52:12;;;;;;;1.15;0.30;;;14.10;72.00;;;;;;5094830;28;20039;-78
2023/04/02 10:54:50;;;;;;;0.45;0.20;;;14.10;70.60;;;;;;5105287;28;20028;-77
2023/04/02 10:57:15;;;;;;;0.20;0.20;;;13.90;70.50;;;;;;5103272;28;20028;-77
2023/04/02 10:59:52;;;;;;;2.40;0.60;;;13.60;72.00;;;;;;5093952;28;20115;-78
2023/04/02 11:02:49;;;;;;;0.88;0.20;;;13.50;72.50;;;;;;5092211;28;20074;-76
2023/04/02 11:05:44;;;;;;;0.95;0.20;;;13.50;71.80;;;;;;5108364;28;20167;-77
2023/04/02 11:08:17;;;;;;;1.90;0.40;;;13.60;71.60;;;;;;5082713;28;20037;-77
2023/04/02 11:10:45;;;;;;;;;;;13.80;69.80;;;;;;5086149;28;20029;-78
2023/04/02 11:13:27;;;;;;;0.40;0.13;;;13.80;69.50;;;;;;5090856;28;20391;-77
2023/04/02 11:15:53;;;;;;;0.47;0.30;;;13.70;70.30;;;;;;5091324;28;20081;-77
2023/04/02 11:18:34;;;;;;;0.93;0.32;;;13.50;70.60;;;;;;5086799;28;20032;-77
2023/04/02 11:21:06;;;;;;;1.20;0.20;;;13.40;71.50;;;;;;5091044;28;20022;-78
2023/04/02 11:23:54;;;;;;;0.65;0.40;;;13.20;71.60;;;;;;5079029;28;20055;-76
2023/04/02 11:26:29;;;;;;;0.28;0.28;;;13.10;72.50;;;;;;5084937;28;20032;-76
2023/04/02 11:29:07;;;;;;;0.38;0.30;;;13.00;73.50;;;;;;5097356;28;20051;-77
2023/04/02 11:31:33;;;;;;;0.77;0.73;;;13.10;73.60;;;;;;5105871;28;20020;-77
2023/04/02 11:33:59;;;;;;;0.82;0.40;;;13.00;73.90;;;;;;5116043;28;20099;-76
2023/04/02 11:36:51;;;;;;;0.88;0.40;;;12.80;74.90;;;;;;5117301;28;20474;-76
2023/04/02 11:39:52;;;;;;;0.93;0.40;;;12.60;76.40;;;;;;5123921;28;20039;-76
2023/04/02 11:42:18;;;;;;;0.63;0.50;;;12.40;77.50;;;;;;5108151;28;20044;-76
2023/04/02 11:44:44;;;;;;;0.73;0.28;;;12.40;78.30;;;;;;5105462;28;20035;-77
2023/04/02 11:47:17;;;;;;;0.30;0.30;;;12.60;79.20;;;;;;5097647;28;20028;-77
2023/04/02 11:49:56;;;;;;;0.85;0.40;;;12.90;80.20;;;;;;5096925;28;20130;-76
2023/04/02 11:52:27;;;;;;;0.57;0.47;;;13.50;79.70;;;;;;5098650;28;20497;-76
2023/04/02 11:55:23;;;;;;;0.93;0.40;;;13.90;76.80;;;;;;5096802;28;20097;-76
2023/04/02 11:58:01;;;;;;;0.45;0.40;;;13.90;75.10;;;;;;5102071;28;20020;-76
2023/04/02 12:00:48;;;;;;;0.88;0.32;;;13.80;76.00;;;;;;5080912;28;20111;-76
2023/04/02 12:03:29;;;;;;;0.47;0.35;;;13.70;76.60;;;;;;5086199;28;20022;-77
2023/04/02 12:06:15;;;;;;;0.63;0.40;;;13.90;76.30;;;;;;5087128;28;20055;-76
2023/04/02 12:09:11;;;;;;;0.50;0.30;;;14.30;75.90;;;;;;5087772;28;20013;-77
2023/04/02 12:11:40;;;;;;;0.52;0.38;;;14.90;72.60;;;;;;5080137;28;20037;-77
2023/04/02 12:14:27;;;;;;;0.88;0.40;;;15.20;69.40;;;;;;5099274;28;20024;-77
2023/04/02 12:16:53;;;;;;;0.60;0.50;;;15.00;69.40;;;;;;5116501;28;20514;-77
2023/04/02 12:19:19;;;;;;;1.48;0.60;;;14.40;69.80;;;;;;5119093;28;20099;-75
2023/04/02 12:21:50;;;;;;;0.20;0.20;;;13.90;70.90;;;;;;5119445;28;20024;-76
2023/04/02 12:24:23;;;;;;;1.33;0.43;;;13.50;73.10;;;;;;5098622;28;20500;-77
2023/04/02 12:27:15;;;;;;;1.63;0.65;;;13.40;73.70;;;;;;5079358;28;20050;-78
2023/04/02 12:29:41;;;;;;;0.30;0.30;;;13.50;72.60;;;;;;5091199;28;20024;-75
2023/04/02 12:32:20;;;;;;;0.20;0.10;;;13.50;72.60;;;;;;5110809;28;20028;-76
2023/04/02 12:34:46;;;;;;;0.55;0.40;;;13.60;72.20;;;;;;5109245;28;20092;-76
2023/04/02 12:37:27;;;;;;;0.43;0.30;;;13.80;72.20;;;;;;5116676;28;20023;-76
2023/04/02 12:39:56;;;;;;;0.17;0.17;;;13.80;72.30;;;;;;5121887;28;20115;-76
2023/04/02 12:42:36;;;;;;;0.13;0.13;;;14.00;72.80;;;;;;5124831;28;20341;-76
2023/04/02 12:45:04;;;;;;;0.45;0.45;;;14.20;73.50;;;;;;5110119;28;20019;-76
2023/04/02 12:47:30;;;;;;;0.43;0.43;;;13.90;75.20;;;;;;5098228;28;20032;-77
2023/04/02 12:49:59;;;;;;;1.08;0.70;;;13.30;77.20;;;;;;5098574;28;20027;-77
2023/04/02 12:52:28;;;;;;;0.80;0.43;;;12.70;81.00;;;;;;5082614;28;20029;-76
2023/04/02 12:55:02;;;;;;;1.23;0.45;;;12.20;84.50;;;;;;5080692;28;20024;-77
2023/04/02 12:57:28;;;;;;;0.90;0.68;;;11.60;87.50;;;;;;5084370;28;20021;-76
2023/04/02 12:59:59;;;;;;;1.83;0.80;;;11.20;91.00;;;;;;5083278;28;20072;-76
2023/04/02 13:02:31;;;;;;;0.70;0.60;;;10.70;92.50;;;;;;5082199;28;20138;-76
2023/04/02 13:05:00;;;;;;;5.10;1.70;;;10.40;94.40;;;;;;5080590;28;20417;-76
2023/04/02 13:07:28;;;;;;;1.67;1.40;;;10.20;96.40;;;;;;5098002;28;20449;-76
2023/04/02 13:09:57;;;;;;;1.65;0.80;;;9.80;98.10;;;;;;5098112;28;20455;-75
2023/04/02 13:12:35;;;;;;;3.88;2.20;;;9.60;99.60;;;;;;5096713;28;20031;-76
2023/04/02 13:15:05;;;;;;;2.30;1.90;;;9.50;99.80;;;;;;5104896;28;20035;-75
2023/04/02 13:17:47;;;;;;;2.58;2.00;;;9.50;99.90;;;;;;5109087;28;20027;-76
2023/04/02 13:20:34;;;;;;;10.02;5.53;;;9.50;99.90;;;;;;5102280;28;20023;-76
2023/04/02 13:23:21;;;;;;;5.40;3.17;;;9.50;99.90;;;;;;5096657;28;20342;-77
2023/04/02 13:25:47;;;;;;;2.17;0.95;;;9.40;99.90;;;;;;5080811;28;20033;-78
2023/04/02 13:28:13;;;;;;;0.88;0.70;;;9.30;99.90;;;;;;5091272;28;20029;-78
2023/04/02 13:30:38;;;;;;;1.30;0.77;;;9.10;99.90;;;;;;5092335;28;20024;-79
2023/04/02 13:33:07;;;;;;;1.48;1.00;;;9.00;99.90;;;;;;5089382;28;20020;-78